Time;durP1;ratioP1;P1;durP2;ratioP2;P2;SDS_P1;SDS_P2;PMS_P1;PMS_P2;Temp;Humidity;BMP_temperature;BMP_pressure;BME280_temperature;BME280_humidity;BME280_pressure;Samples;Min_cycle;Max_cycle;Signal;HPM_P1;HPM_P2
2022/01/31 00:00:58;;;;;;;11.13;5.97;;;;;;;3.88;68.79;94750.03;5034993;28;20450;-79
2022/01/31 00:03:30;;;;;;;20.70;5.87;;;;;;;3.82;69.06;94763.41;5035069;28;20446;-79
2022/01/31 00:05:57;;;;;;;14.37;5.50;;;;;;;3.79;69.66;94755.81;5035002;28;20826;-79
2022/01/31 00:08:24;;;;;;;11.60;5.70;;;;;;;3.79;69.36;94750.63;5035602;28;20449;-79
2022/01/31 00:10:52;;;;;;;30.43;6.37;;;;;;;3.73;69.84;94756.97;5035013;28;20465;-79
2022/01/31 00:13:23;;;;;;;15.97;4.97;;;;;;;3.71;70.13;94753.66;5034967;28;20536;-78
2022/01/31 00:15:54;;;;;;;10.53;5.10;;;;;;;3.65;70.25;94759.22;5034633;28;20454;-79
2022/01/31 00:18:21;;;;;;;23.83;7.20;;;;;;;3.59;70.23;94750.03;4983121;28;20842;-78
2022/01/31 00:20:49;;;;;;;17.90;6.00;;;;;;;3.59;70.95;94744.03;5034830;28;20466;-78
2022/01/31 00:23:17;;;;;;;9.43;5.47;;;;;;;3.56;71.37;94752.81;5034823;28;20798;-78
2022/01/31 00:25:43;;;;;;;18.70;5.70;;;;;;;3.53;71.20;94760.78;5035010;28;20490;-78
2022/01/31 00:28:10;;;;;;;12.87;6.13;;;;;;;3.42;71.12;94755.38;5034663;28;20442;-79
2022/01/31 00:30:37;;;;;;;25.87;6.30;;;;;;;3.37;71.40;94755.66;5034506;28;20458;-79
2022/01/31 00:33:04;;;;;;;13.60;5.17;;;;;;;3.38;72.39;94754.75;5034821;28;20486;-79
2022/01/31 00:35:31;;;;;;;9.53;4.30;;;;;;;3.38;71.63;94748.72;5034720;28;20541;-78
2022/01/31 00:38:00;;;;;;;17.67;5.67;;;;;;;3.40;71.74;94754.66;5034596;28;20442;-78
2022/01/31 00:40:26;;;;;;;15.13;6.70;;;;;;;3.41;71.95;94758.91;5034501;28;20473;-78
2022/01/31 00:42:53;;;;;;;21.60;5.13;;;;;;;3.42;72.58;94755.38;5034123;28;20450;-79
2022/01/31 00:45:25;;;;;;;27.53;6.80;;;;;;;3.49;71.55;94763.66;5034524;28;20489;-79
2022/01/31 00:48:01;;;;;;;18.00;6.37;;;;;;;3.53;71.92;94765.16;5034257;28;20482;-78
2022/01/31 00:50:28;;;;;;;11.00;5.10;;;;;;;3.60;70.97;94769.03;5034341;28;20445;-78
2022/01/31 00:52:56;;;;;;;17.70;7.20;;;;;;;3.59;70.22;94775.16;5033846;28;20443;-79
2022/01/31 00:55:24;;;;;;;18.53;4.97;;;;;;;3.57;70.70;94783.03;5034437;28;20438;-79
2022/01/31 00:57:51;;;;;;;20.27;5.40;;;;;;;3.54;70.60;94778.03;5034064;28;20457;-79
2022/01/31 01:00:18;;;;;;;13.67;5.23;;;;;;;3.58;71.00;94789.06;5034065;28;20435;-79
2022/01/31 01:02:46;;;;;;;15.33;5.07;;;;;;;3.51;70.41;94764.41;4983291;28;20446;-77
2022/01/31 01:05:14;;;;;;;7.40;3.83;;;;;;;3.46;70.96;94780.22;5033909;28;20491;-79
2022/01/31 01:07:45;;;;;;;12.70;4.93;;;;;;;3.43;71.12;94773.44;5033876;28;20457;-77
2022/01/31 01:10:12;;;;;;;9.90;4.47;;;;;;;3.53;71.50;94776.34;5033916;28;20455;-79
2022/01/31 01:12:41;;;;;;;14.67;4.97;;;;;;;3.57;71.49;94770.06;5033613;28;20449;-79
2022/01/31 01:15:08;;;;;;;11.30;4.70;;;;;;;3.52;70.62;94766.91;5033546;28;20457;-77
2022/01/31 01:17:35;;;;;;;12.57;5.43;;;;;;;3.52;70.91;94766.91;5033677;28;20940;-79
2022/01/31 01:20:02;;;;;;;16.10;4.90;;;;;;;3.56;71.13;94763.19;4998914;28;20439;-79
2022/01/31 01:22:29;;;;;;;18.07;5.13;;;;;;;3.52;70.42;94772.09;5033570;28;21028;-78
2022/01/31 01:24:56;;;;;;;5.43;3.83;;;;;;;3.53;69.78;94765.97;5033674;28;20485;-79
2022/01/31 01:27:23;;;;;;;12.20;4.17;;;;;;;3.55;70.61;94758.09;5033332;28;20541;-78
2022/01/31 01:29:52;;;;;;;8.30;3.97;;;;;;;3.54;69.69;94757.28;5031185;28;20939;-78
2022/01/31 01:32:19;;;;;;;14.00;6.87;;;;;;;3.54;70.95;94754.69;5013665;28;21007;-78
2022/01/31 01:34:46;;;;;;;21.23;3.87;;;;;;;3.56;70.58;94755.41;5031920;28;20453;-78
2022/01/31 01:37:12;;;;;;;11.33;4.30;;;;;;;3.53;69.69;94747.00;5032127;28;20461;-79
2022/01/31 01:39:39;;;;;;;14.67;4.70;;;;;;;3.61;70.48;94755.13;5032167;28;20461;-78
2022/01/31 01:42:10;;;;;;;20.50;4.63;;;;;;;3.62;70.29;94752.44;5033231;28;20443;-77
2022/01/31 01:44:45;;;;;;;9.73;4.23;;;;;;;3.68;69.68;94743.47;5033250;28;20454;-78
2022/01/31 01:47:22;;;;;;;10.77;4.73;;;;;;;3.73;69.52;94751.78;5033786;28;20454;-78
2022/01/31 01:49:52;;;;;;;15.43;5.10;;;;;;;3.73;69.97;94756.97;5033777;28;20464;-78
2022/01/31 01:52:20;;;;;;;25.07;3.83;;;;;;;3.70;69.26;94745.03;5033619;28;20451;-79
2022/01/31 01:54:48;;;;;;;16.30;4.50;;;;;;;3.74;69.27;94754.28;5033342;28;20581;-79
2022/01/31 01:57:15;;;;;;;15.07;4.70;;;;;;;3.71;67.81;94749.28;5032943;28;20442;-79
2022/01/31 01:59:42;;;;;;;17.87;4.40;;;;;;;3.69;68.70;94761.53;5033002;28;20447;-78
2022/01/31 02:02:10;;;;;;;5.00;3.60;;;;;;;3.73;68.67;94760.41;5033114;28;20442;-76
2022/01/31 02:04:38;;;;;;;6.67;4.33;;;;;;;3.75;68.48;94768.09;5033435;28;20461;-78
2022/01/31 02:07:05;;;;;;;10.90;4.30;;;;;;;3.81;68.49;94766.94;5032961;28;20446;-78
2022/01/31 02:09:41;;;;;;;14.00;4.17;;;;;;;3.78;68.29;94769.72;4982282;28;20445;-79
2022/01/31 02:12:12;;;;;;;8.73;3.70;;;;;;;3.75;68.18;94765.50;5033215;28;20500;-79
2022/01/31 02:14:39;;;;;;;7.53;3.50;;;;;;;3.76;68.04;94756.81;5033057;28;20448;-78
2022/01/31 02:17:06;;;;;;;10.47;3.93;;;;;;;3.76;67.39;94755.97;5032220;28;20451;-77
2022/01/31 02:19:33;;;;;;;16.20;3.80;;;;;;;3.69;67.98;94758.94;5032792;28;20801;-77
2022/01/31 02:22:02;;;;;;;11.50;4.03;;;;;;;3.70;67.07;94762.38;4982306;28;20442;-79
2022/01/31 02:24:30;;;;;;;10.30;3.83;;;;;;;3.65;67.24;94754.84;5033336;28;20453;-79
2022/01/31 02:26:57;;;;;;;9.57;4.30;;;;;;;3.60;68.12;94769.88;5033089;28;20915;-79
2022/01/31 02:29:24;;;;;;;5.83;3.63;;;;;;;3.48;68.88;94764.59;5033018;28;20456;-78
2022/01/31 02:31:51;;;;;;;20.90;5.63;;;;;;;3.38;69.21;94769.47;5033173;28;20477;-78
2022/01/31 02:34:18;;;;;;;6.30;3.40;;;;;;;3.42;69.11;94763.16;5033186;28;20810;-78
2022/01/31 02:36:45;;;;;;;7.73;4.30;;;;;;;3.36;69.03;94766.97;5032934;28;20956;-79
2022/01/31 02:39:14;;;;;;;11.60;4.27;;;;;;;3.48;69.32;94773.22;5033158;28;20442;-79
2022/01/31 02:41:42;;;;;;;11.83;4.27;;;;;;;3.50;68.93;94780.91;5036523;28;20476;-79
2022/01/31 02:44:14;;;;;;;13.43;5.30;;;;;;;3.52;69.58;94777.28;5001710;28;20455;-78
2022/01/31 02:46:49;;;;;;;14.93;4.23;;;;;;;3.52;68.21;94789.41;5036987;28;20485;-78
2022/01/31 02:49:20;;;;;;;4.87;3.43;;;;;;;3.55;69.07;94782.28;5036439;28;20450;-78
2022/01/31 02:51:50;;;;;;;11.93;4.00;;;;;;;3.56;68.00;94781.34;5036752;28;20446;-79
2022/01/31 02:54:18;;;;;;;14.97;3.83;;;;;;;3.60;67.64;94788.03;5036765;28;20469;-79
2022/01/31 02:56:45;;;;;;;17.33;4.20;;;;;;;3.58;67.56;94789.88;5036642;28;20447;-79
2022/01/31 02:59:12;;;;;;;7.77;3.20;;;;;;;3.51;68.33;94787.75;5036399;28;20450;-79
2022/01/31 03:01:39;;;;;;;14.30;4.03;;;;;;;3.51;68.67;94788.59;5036442;28;20446;-78
2022/01/31 03:04:07;;;;;;;7.50;4.00;;;;;;;3.50;68.84;94781.72;5036467;28;20448;-79
2022/01/31 03:06:34;;;;;;;13.77;4.70;;;;;;;3.55;68.21;94779.69;5036125;28;20585;-78
2022/01/31 03:09:01;;;;;;;12.93;4.07;;;;;;;3.59;67.48;94788.13;5036158;28;20446;-78
2022/01/31 03:11:29;;;;;;;4.50;3.10;;;;;;;3.60;68.14;94798.41;5017791;28;20430;-78
2022/01/31 03:13:56;;;;;;;16.57;3.43;;;;;;;3.54;67.63;94783.22;5036236;28;20457;-79
2022/01/31 03:16:23;;;;;;;10.20;4.07;;;;;;;3.55;68.03;94797.84;5035995;28;20965;-79
2022/01/31 03:18:50;;;;;;;10.00;3.73;;;;;;;3.55;67.66;94787.47;5036112;28;20449;-79
2022/01/31 03:21:18;;;;;;;9.80;3.27;;;;;;;3.55;68.30;94784.88;5036258;28;20446;-79
2022/01/31 03:23:49;;;;;;;8.77;3.90;;;;;;;3.55;68.02;94795.25;5036129;28;20454;-79
2022/01/31 03:26:16;;;;;;;3.63;3.27;;;;;;;3.55;66.92;94789.22;5035598;28;20482;-78
2022/01/31 03:28:44;;;;;;;8.70;3.33;;;;;;;3.53;67.60;94785.91;5035673;28;20443;-79
2022/01/31 03:31:11;;;;;;;12.10;3.60;;;;;;;3.51;67.29;94785.16;5035806;28;20478;-79
2022/01/31 03:33:38;;;;;;;17.23;3.77;;;;;;;3.44;67.08;94779.47;5035593;28;20442;-78
2022/01/31 03:36:05;;;;;;;7.70;3.47;;;;;;;3.50;67.72;94780.91;5000789;28;20447;-78
2022/01/31 03:38:32;;;;;;;5.80;3.80;;;;;;;3.44;67.91;94771.69;5036109;28;20457;-76
2022/01/31 03:40:59;;;;;;;7.60;2.90;;;;;;;3.44;66.92;94771.69;5035982;28;20454;-77
2022/01/31 03:43:26;;;;;;;6.20;3.10;;;;;;;3.39;67.47;94773.72;5035890;28;20960;-78
2022/01/31 03:45:54;;;;;;;7.30;4.10;;;;;;;3.37;67.68;94778.16;5035599;28;20486;-79
2022/01/31 03:48:21;;;;;;;6.50;3.93;;;;;;;3.35;67.77;94777.44;5035371;28;20446;-78
2022/01/31 03:50:48;;;;;;;14.27;4.10;;;;;;;3.36;68.11;94779.09;5035632;28;20447;-79
2022/01/31 03:53:15;;;;;;;13.77;4.50;;;;;;;3.38;68.32;94783.25;4999375;28;20968;-79
2022/01/31 03:55:42;;;;;;;19.47;4.53;;;;;;;3.32;68.03;94780.19;5035238;28;20777;-78
2022/01/31 03:58:09;;;;;;;21.90;5.17;;;;;;;3.36;68.58;94786.88;5035697;28;20446;-78
2022/01/31 04:00:36;;;;;;;8.30;3.63;;;;;;;3.44;68.05;94784.66;5016807;28;20447;-78
2022/01/31 04:03:05;;;;;;;9.93;3.93;;;;;;;3.47;67.61;94792.28;5035390;28;20446;-79
2022/01/31 04:05:32;;;;;;;8.43;4.10;;;;;;;3.50;68.43;94794.69;5034734;28;20451;-79
2022/01/31 04:07:59;;;;;;;4.83;3.43;;;;;;;3.49;68.48;94780.06;5035273;28;20508;-79
2022/01/31 04:10:26;;;;;;;10.73;4.30;;;;;;;3.48;68.27;94790.53;5035069;28;20446;-78
2022/01/31 04:12:53;;;;;;;6.60;3.10;;;;;;;3.36;68.59;94782.53;5034889;28;20929;-78
2022/01/31 04:15:20;;;;;;;8.93;4.00;;;;;;;3.35;68.59;94780.03;5034733;28;20446;-79
2022/01/31 04:17:47;;;;;;;10.80;3.43;;;;;;;3.39;68.92;94794.47;5034626;28;20817;-78
2022/01/31 04:20:16;;;;;;;10.20;3.97;;;;;;;3.34;68.80;94788.72;5035075;28;20940;-79
2022/01/31 04:22:49;;;;;;;7.53;4.33;;;;;;;3.31;67.98;94778.53;5034842;28;20446;-79
2022/01/31 04:25:28;;;;;;;13.83;4.23;;;;;;;3.25;68.26;94781.50;5034913;28;20516;-78
2022/01/31 04:28:02;;;;;;;13.70;4.10;;;;;;;3.20;68.47;94784.34;5034520;28;20445;-79
2022/01/31 04:30:30;;;;;;;11.40;5.00;;;;;;;3.13;68.53;94777.00;5035052;28;20458;-79
2022/01/31 04:32:57;;;;;;;22.70;4.60;;;;;;;3.15;68.48;94773.38;5035283;28;20498;-79
2022/01/31 04:35:25;;;;;;;11.30;4.93;;;;;;;3.12;68.79;94791.72;5034825;28;20818;-79
2022/01/31 04:37:52;;;;;;;6.40;3.43;;;;;;;3.02;69.01;94783.66;5034550;28;20446;-79
2022/01/31 04:40:19;;;;;;;13.20;4.17;;;;;;;2.89;69.02;94787.00;5034493;28;20442;-81
2022/01/31 04:42:46;;;;;;;15.70;4.10;;;;;;;2.95;69.42;94782.31;5035970;28;20450;-80
2022/01/31 04:45:13;;;;;;;11.63;4.40;;;;;;;2.92;69.92;94769.56;5019623;28;20481;-79
2022/01/31 04:47:40;;;;;;;13.33;4.60;;;;;;;2.89;69.49;94777.50;5035052;28;20497;-78
2022/01/31 04:50:08;;;;;;;9.17;3.70;;;;;;;2.89;69.88;94782.69;5036004;28;20955;-78
2022/01/31 04:52:38;;;;;;;15.13;4.03;;;;;;;2.82;70.29;94768.38;5035310;28;20442;-79
2022/01/31 04:55:06;;;;;;;6.10;3.60;;;;;;;2.85;70.41;94775.16;5035135;28;20799;-79
2022/01/31 04:57:33;;;;;;;7.70;3.70;;;;;;;2.76;70.27;94763.56;5035037;28;20957;-79
2022/01/31 05:00:01;;;;;;;5.00;3.87;;;;;;;2.72;70.97;94764.66;5035438;28;20944;-79
2022/01/31 05:02:27;;;;;;;21.53;3.93;;;;;;;2.64;70.58;94759.06;5034768;28;20432;-79
2022/01/31 05:04:54;;;;;;;5.70;3.77;;;;;;;2.64;71.01;94753.91;5034289;28;21245;-80
2022/01/31 05:07:21;;;;;;;12.50;4.23;;;;;;;2.60;70.84;94758.41;5034790;28;20478;-79
2022/01/31 05:09:50;;;;;;;5.07;4.27;;;;;;;2.52;70.98;94754.56;5033584;28;20449;-79
2022/01/31 05:12:17;;;;;;;15.53;3.50;;;;;;;2.45;70.47;94752.31;5033247;28;20541;-80
2022/01/31 05:14:44;;;;;;;8.90;3.80;;;;;;;2.44;71.06;94753.25;5033412;28;20441;-81
2022/01/31 05:17:11;;;;;;;6.50;4.00;;;;;;;2.47;70.74;94760.00;5015069;28;20457;-80
2022/01/31 05:19:38;;;;;;;12.73;4.67;;;;;;;2.41;70.31;94762.94;4982839;28;20455;-79
2022/01/31 05:22:05;;;;;;;11.90;3.63;;;;;;;2.36;71.33;94765.78;5032946;28;20462;-79
2022/01/31 05:24:31;;;;;;;14.33;3.73;;;;;;;2.27;71.40;94763.66;5033105;28;20449;-80
2022/01/31 05:27:00;;;;;;;4.83;3.60;;;;;;;2.27;72.22;94768.00;5033240;28;20486;-79
2022/01/31 05:29:27;;;;;;;7.47;4.33;;;;;;;2.32;72.33;94773.81;5032996;28;20461;-78
2022/01/31 05:31:53;;;;;;;10.23;3.90;;;;;;;2.39;71.82;94765.59;5032867;28;20830;-80
2022/01/31 05:34:22;;;;;;;6.33;3.03;;;;;;;2.41;70.73;94766.34;5033055;28;20454;-79
2022/01/31 05:36:51;;;;;;;23.63;8.70;;;;;;;3.93;90.35;94756.63;5032776;28;20495;-81
2022/01/31 05:39:18;;;;;;;16.00;4.10;;;;;;;4.33;73.56;94765.38;4983790;28;20469;-79
2022/01/31 05:41:45;;;;;;;8.90;4.10;;;;;;;3.99;65.44;94760.59;5033047;28;20446;-80
2022/01/31 05:44:13;;;;;;;7.43;4.17;;;;;;;3.60;67.09;94767.28;5033017;28;20449;-79
2022/01/31 05:46:40;;;;;;;4.80;3.73;;;;;;;3.28;67.69;94768.34;5033221;28;20486;-80
2022/01/31 05:49:07;;;;;;;7.23;3.73;;;;;;;3.03;68.09;94771.50;5032642;28;20449;-80
2022/01/31 05:51:34;;;;;;;9.00;3.13;;;;;;;2.89;69.02;94780.09;4999328;28;20435;-78
2022/01/31 05:54:01;;;;;;;9.20;3.57;;;;;;;2.69;70.16;94780.38;5032932;28;20445;-79
2022/01/31 05:56:27;;;;;;;10.10;4.93;;;;;;;2.58;70.40;94774.94;5032740;28;20804;-79
2022/01/31 05:58:54;;;;;;;7.30;3.73;;;;;;;2.50;70.74;94788.31;4998731;28;20442;-79
2022/01/31 06:01:23;;;;;;;4.10;3.67;;;;;;;2.56;71.13;94792.31;5033203;28;20456;-79
2022/01/31 06:03:49;;;;;;;10.37;4.57;;;;;;;2.55;71.24;94790.66;5032553;28;20457;-79
2022/01/31 06:06:16;;;;;;;14.37;5.13;;;;;;;2.67;71.01;94796.00;5033698;28;20486;-78
2022/01/31 06:08:43;;;;;;;7.23;5.50;;;;;;;2.71;70.76;94796.66;5033936;28;20446;-79
2022/01/31 06:11:10;;;;;;;16.27;5.00;;;;;;;2.90;70.52;94802.50;5033801;28;20465;-79
2022/01/31 06:13:37;;;;;;;18.13;4.50;;;;;;;2.99;69.65;94801.13;5033645;28;20455;-79
2022/01/31 06:16:04;;;;;;;10.37;4.53;;;;;;;3.04;69.47;94796.50;5035957;28;20453;-79
2022/01/31 06:18:35;;;;;;;25.33;5.90;;;;;;;3.19;68.46;94779.25;5037191;28;20436;-79
2022/01/31 06:21:02;;;;;;;11.43;5.30;;;;;;;3.26;68.05;94784.00;5037345;28;20533;-79
2022/01/31 06:23:29;;;;;;;13.03;5.40;;;;;;;3.16;67.95;94782.00;5019478;28;20472;-78
2022/01/31 06:25:56;;;;;;;11.20;5.70;;;;;;;3.19;68.34;94787.03;5017467;28;21027;-78
2022/01/31 06:28:24;;;;;;;8.60;5.77;;;;;;;3.22;67.37;94768.72;5017472;28;20492;-78
2022/01/31 06:30:50;;;;;;;13.40;6.03;;;;;;;3.15;67.12;94767.38;5017529;28;20455;-78
2022/01/31 06:33:17;;;;;;;7.93;5.40;;;;;;;3.10;67.00;94758.09;5017199;28;20459;-79
2022/01/31 06:35:47;;;;;;;14.90;7.37;;;;;;;3.12;66.40;94750.25;5017434;28;20786;-80
2022/01/31 06:38:14;;;;;;;32.53;17.40;;;;;;;3.13;66.28;94754.50;5017727;28;20508;-78
2022/01/31 06:40:42;;;;;;;13.80;9.00;;;;;;;3.11;66.44;94748.56;4982943;28;20462;-78
2022/01/31 06:43:09;;;;;;;24.88;11.35;;;;;;;4.03;90.77;94723.13;5016631;28;20779;-78
2022/01/31 06:45:36;;;;;;;16.73;8.47;;;;;;;3.67;65.79;94754.75;5017282;28;20525;-79
2022/01/31 06:48:03;;;;;;;16.55;6.00;;;;;;;3.52;64.18;94742.72;5016283;28;20465;-79
2022/01/31 06:50:30;;;;;;;11.07;6.07;;;;;;;3.50;62.86;94748.00;4966479;28;20208;-79
2022/01/31 06:52:59;;;;;;;14.67;5.90;;;;;;;3.77;62.89;94760.25;5016793;28;20548;-79
2022/01/31 06:55:28;;;;;;;17.50;5.13;;;;;;;4.02;62.07;94763.00;4982032;28;20449;-78
2022/01/31 06:57:55;;;;;;;9.23;4.67;;;;;;;4.42;60.89;94758.78;5016838;28;20803;-79
2022/01/31 07:00:23;;;;;;;8.53;4.40;;;;;;;4.78;58.90;94770.38;5016632;28;20453;-79
2022/01/31 07:02:51;;;;;;;12.30;5.30;;;;;;;5.09;59.03;94777.00;5017081;28;20451;-78
2022/01/31 07:05:18;;;;;;;14.57;6.10;;;;;;;5.39;57.83;94761.16;5017307;28;20461;-78
2022/01/31 07:07:46;;;;;;;6.23;4.87;;;;;;;5.28;57.29;94751.47;5017057;28;20484;-78
2022/01/31 07:10:15;;;;;;;10.10;5.47;;;;;;;4.92;56.84;94745.16;4966748;28;20447;-78
2022/01/31 07:12:48;;;;;;;6.90;4.50;;;;;;;4.72;58.13;94736.97;5016503;28;20451;-77
2022/01/31 07:15:16;;;;;;;7.23;4.97;;;;;;;4.61;58.01;94729.84;5016671;28;20530;-78
2022/01/31 07:17:44;;;;;;;12.70;5.00;;;;;;;4.38;57.78;94712.31;5016150;28;20462;-78
2022/01/31 07:20:21;;;;;;;12.70;4.70;;;;;;;4.40;58.95;94719.09;4982199;28;20918;-80
2022/01/31 07:22:53;;;;;;;7.60;4.57;;;;;;;4.36;58.22;94725.41;5027587;28;20434;-80
2022/01/31 07:25:34;;;;;;;6.50;4.50;;;;;;;4.49;58.53;94726.28;5035811;28;20803;-78
2022/01/31 07:28:01;;;;;;;10.17;4.63;;;;;;;4.61;56.38;94720.28;5035739;28;20941;-78
2022/01/31 07:30:29;;;;;;;10.30;6.20;;;;;;;4.50;55.80;94720.16;4984973;28;21005;-78
2022/01/31 07:32:55;;;;;;;11.00;6.00;;;;;;;4.51;56.56;94721.00;5036036;28;20477;-77
2022/01/31 07:35:22;;;;;;;10.63;4.60;;;;;;;4.53;56.27;94726.91;4984725;28;20929;-78
2022/01/31 07:37:49;;;;;;;8.17;4.70;;;;;;;4.35;55.12;94708.16;5035899;28;20450;-78
2022/01/31 07:40:16;;;;;;;14.17;4.40;;;;;;;4.40;55.48;94705.25;5035662;28;20451;-78
2022/01/31 07:42:44;;;;;;;7.07;4.87;;;;;;;4.42;55.01;94703.41;5000718;28;20926;-78
2022/01/31 07:45:16;;;;;;;13.83;6.27;;;;;;;4.42;54.72;94716.38;5035224;28;20455;-78
2022/01/31 07:47:43;;;;;;;6.10;3.87;;;;;;;4.37;55.42;94715.84;5035435;28;20492;-79
2022/01/31 07:50:11;;;;;;;5.37;3.63;;;;;;;4.24;54.90;94705.38;5034968;28;20446;-78
2022/01/31 07:52:39;;;;;;;11.60;3.40;;;;;;;4.19;54.99;94703.09;5035196;28;20462;-78
2022/01/31 07:55:07;;;;;;;5.73;4.53;;;;;;;4.38;55.56;94704.53;5035134;28;20462;-78
2022/01/31 07:57:34;;;;;;;17.03;5.70;;;;;;;4.31;54.86;94693.66;5035201;28;20450;-79
2022/01/31 08:00:06;;;;;;;13.63;6.60;;;;;;;4.31;56.05;94702.28;5035223;28;20478;-78
2022/01/31 08:02:33;;;;;;;9.30;5.73;;;;;;;4.26;55.02;94688.78;4984518;28;20442;-78
2022/01/31 08:05:00;;;;;;;14.10;8.40;;;;;;;4.25;55.42;94687.09;5031882;28;20431;-78
2022/01/31 08:07:26;;;;;;;25.67;9.97;;;;;;;4.32;55.14;94697.94;5015067;28;20487;-78
2022/01/31 08:09:53;;;;;;;8.37;4.10;;;;;;;4.35;54.44;94703.78;5015443;28;20948;-77
2022/01/31 08:12:20;;;;;;;10.30;5.07;;;;;;;4.41;53.95;94707.75;5015516;28;20884;-78
2022/01/31 08:14:48;;;;;;;10.33;3.20;;;;;;;4.42;54.69;94706.84;5015006;28;20455;-78
2022/01/31 08:17:16;;;;;;;8.90;5.37;;;;;;;4.46;53.93;94712.66;5015200;28;20530;-78
2022/01/31 08:19:43;;;;;;;15.63;9.93;;;;;;;4.47;54.54;94709.13;5015316;28;20439;-78
2022/01/31 08:22:13;;;;;;;9.43;5.73;;;;;;;4.55;54.52;94699.91;5019798;28;20493;-79
2022/01/31 08:24:40;;;;;;;13.37;5.60;;;;;;;4.72;54.43;94704.03;5034865;28;20453;-81
2022/01/31 08:27:07;;;;;;;8.07;4.47;;;;;;;4.87;54.04;94690.00;4984062;28;20996;-82
2022/01/31 08:29:36;;;;;;;8.93;4.40;;;;;;;4.79;53.13;94681.88;5034727;28;20446;-81
2022/01/31 08:32:08;;;;;;;13.10;5.13;;;;;;;4.77;52.32;94678.56;5032722;28;20498;-79
2022/01/31 08:37:22;;;;;;;19.77;6.97;;;;;;;4.66;54.05;94665.44;5034150;28;20434;-79
2022/01/31 08:39:49;;;;;;;9.47;4.60;;;;;;;4.63;54.40;94681.25;4999617;28;20453;-78
2022/01/31 08:42:16;;;;;;;7.43;4.17;;;;;;;4.63;54.10;94674.28;5033999;28;20459;-79
2022/01/31 08:44:43;;;;;;;12.40;4.43;;;;;;;4.61;55.13;94677.88;5034134;28;20933;-78
2022/01/31 08:47:10;;;;;;;8.90;4.80;;;;;;;4.66;55.34;94686.22;5034425;28;20490;-79
2022/01/31 08:49:38;;;;;;;10.77;6.30;;;;;;;4.74;54.93;94683.97;5034205;28;20786;-79
2022/01/31 08:52:06;;;;;;;15.30;6.03;;;;;;;4.76;54.74;94692.50;5034272;28;20452;-79
2022/01/31 08:54:33;;;;;;;10.67;4.30;;;;;;;4.70;53.86;94687.69;5034065;28;20948;-78
2022/01/31 08:57:01;;;;;;;13.73;5.03;;;;;;;4.69;54.88;94678.25;5034168;28;20545;-79
2022/01/31 08:59:28;;;;;;;16.23;6.17;;;;;;;4.67;55.75;94682.69;5034441;28;20506;-79
2022/01/31 09:02:05;;;;;;;15.23;5.63;;;;;;;4.65;54.31;94684.56;5033966;28;20987;-78
2022/01/31 09:04:47;;;;;;;9.43;3.50;;;;;;;4.75;55.18;94684.78;5032562;28;20930;-79
2022/01/31 09:07:16;;;;;;;15.13;4.90;;;;;;;4.98;54.16;94687.56;5032667;28;20496;-79
2022/01/31 09:09:43;;;;;;;12.27;5.43;;;;;;;5.17;54.60;94678.50;5033047;28;20442;-79
2022/01/31 09:12:15;;;;;;;10.30;4.27;;;;;;;5.25;53.38;94673.66;5032789;28;20443;-79
2022/01/31 09:14:42;;;;;;;14.30;6.53;;;;;;;5.34;52.96;94667.81;5032553;28;20453;-79
2022/01/31 09:17:09;;;;;;;18.77;6.90;;;;;;;5.41;53.37;94661.25;5033769;28;20680;-78
2022/01/31 09:19:36;;;;;;;5.53;4.00;;;;;;;5.35;52.12;94653.88;5034002;28;20457;-77
2022/01/31 09:22:03;;;;;;;14.27;4.80;;;;;;;5.28;51.23;94648.25;5031904;28;20442;-79
2022/01/31 09:24:37;;;;;;;15.77;5.27;;;;;;;5.40;52.08;94640.53;4963744;28;20450;-78
2022/01/31 09:27:04;;;;;;;6.60;4.60;;;;;;;5.66;51.51;94633.53;5013749;28;20536;-79
2022/01/31 09:29:31;;;;;;;9.23;4.23;;;;;;;5.79;51.46;94622.16;5014054;28;20445;-79
2022/01/31 09:31:59;;;;;;;13.10;4.60;;;;;;;5.99;50.42;94628.59;5014493;28;20490;-78
2022/01/31 09:34:26;;;;;;;7.47;4.60;;;;;;;6.07;49.33;94621.06;5013591;28;20915;-78
2022/01/31 09:36:53;;;;;;;9.30;3.50;;;;;;;6.10;49.39;94630.44;5013554;28;20943;-79
2022/01/31 09:39:20;;;;;;;10.50;5.00;;;;;;;5.93;49.83;94616.00;5013653;28;20453;-79
2022/01/31 09:41:53;;;;;;;11.37;4.33;;;;;;;5.85;49.75;94610.47;5014122;28;20482;-78
2022/01/31 09:44:26;;;;;;;13.50;4.60;;;;;;;5.77;49.67;94605.78;5013644;28;20990;-79
2022/01/31 09:47:07;;;;;;;9.27;5.33;;;;;;;5.68;49.51;94590.84;5013807;28;20526;-79
2022/01/31 09:49:34;;;;;;;9.97;4.57;;;;;;;5.59;50.26;94594.94;5012432;28;20804;-79
2022/01/31 09:52:01;;;;;;;11.83;4.90;;;;;;;5.65;50.13;94582.41;5012964;28;20799;-79
2022/01/31 09:54:29;;;;;;;7.70;4.63;;;;;;;5.70;49.59;94570.72;5013631;28;20451;-79
2022/01/31 09:56:58;;;;;;;10.47;4.83;;;;;;;5.77;50.71;94564.16;5013832;28;20522;-78
2022/01/31 09:59:25;;;;;;;5.40;3.73;;;;;;;5.78;49.56;94564.97;5013859;28;20457;-79
2022/01/31 10:01:55;;;;;;;8.40;3.87;;;;;;;5.80;49.59;94566.56;5013488;28;20483;-79
2022/01/31 10:04:24;;;;;;;12.70;4.37;;;;;;;5.71;49.48;94569.78;5013766;28;20517;-79
2022/01/31 10:06:52;;;;;;;8.83;3.80;;;;;;;5.75;49.28;94576.44;4962947;28;20445;-79
2022/01/31 10:09:20;;;;;;;7.50;4.30;;;;;;;5.96;49.08;94566.31;5013333;28;20492;-78
2022/01/31 10:11:50;;;;;;;4.73;3.87;;;;;;;6.09;48.88;94561.06;4963666;28;20445;-78
2022/01/31 10:17:11;;;;;;;6.43;3.80;;;;;;;6.03;47.56;94530.22;5013316;28;20514;-79
2022/01/31 10:19:40;;;;;;;19.00;3.37;;;;;;;5.93;48.34;94511.84;5023693;28;20454;-78
2022/01/31 10:22:09;;;;;;;13.60;4.90;;;;;;;5.89;47.00;94508.63;5050436;28;20450;-79
2022/01/31 10:24:38;;;;;;;10.40;3.90;;;;;;;5.80;48.06;94504.06;5032152;28;20830;-79
2022/01/31 10:27:10;;;;;;;7.67;3.20;;;;;;;5.78;47.35;94507.69;4998121;28;20831;-78
2022/01/31 10:29:39;;;;;;;10.27;5.60;;;;;;;5.89;48.96;94498.22;5031710;28;20489;-80
2022/01/31 10:32:09;;;;;;;10.60;5.83;;;;;;;6.08;48.27;94502.94;5031739;28;20536;-79
2022/01/31 10:34:39;;;;;;;9.67;3.97;;;;;;;6.11;48.14;94489.66;5032197;28;20443;-78
2022/01/31 10:37:13;;;;;;;3.57;2.83;;;;;;;6.17;48.95;94481.41;5031822;28;20451;-79
2022/01/31 10:45:34;;;;;;;10.63;3.67;;;;;;;6.19;47.77;94450.84;5032720;28;20439;-79
2022/01/31 10:53:45;;;;;;;8.67;3.67;;;;;;;6.59;46.41;94419.16;4996300;28;20447;-80
2022/01/31 10:56:12;;;;;;;6.90;3.23;;;;;;;6.70;46.60;94413.13;4991598;28;20769;-79
2022/01/31 10:58:54;;;;;;;8.40;4.50;;;;;;;6.79;45.51;94409.81;4991336;28;20444;-80
2022/01/31 11:01:23;;;;;;;20.13;4.77;;;;;;;6.90;46.02;94395.91;4992283;28;20512;-78
2022/01/31 11:03:50;;;;;;;10.13;3.50;;;;;;;6.84;45.61;94385.03;4994509;28;20446;-78
2022/01/31 11:06:19;;;;;;;10.70;3.83;;;;;;;6.81;45.51;94380.06;4994643;28;20434;-78
2022/01/31 11:08:46;;;;;;;22.17;6.47;;;;;;;6.75;46.67;94385.75;4994653;28;20540;-78
2022/01/31 11:11:13;;;;;;;6.77;4.43;;;;;;;6.72;46.60;94378.19;4994755;28;20568;-80
2022/01/31 11:13:40;;;;;;;8.80;3.70;;;;;;;6.64;45.93;94370.09;4994563;28;20457;-79
2022/01/31 11:16:09;;;;;;;8.27;4.10;;;;;;;6.64;45.82;94370.09;4994765;28;20550;-79
2022/01/31 11:18:37;;;;;;;6.30;3.37;;;;;;;6.51;45.95;94366.78;4994426;28;20446;-79
2022/01/31 11:21:07;;;;;;;16.30;3.23;;;;;;;6.39;46.79;94365.97;4978116;28;20455;-80
2022/01/31 11:23:39;;;;;;;6.57;3.90;;;;;;;6.48;46.67;94380.06;4982806;28;20450;-76
2022/01/31 11:26:09;;;;;;;10.80;4.60;;;;;;;6.45;47.08;94382.91;5005901;28;20931;-77
2022/01/31 11:28:37;;;;;;;14.07;5.93;;;;;;;6.44;46.19;94378.66;4980829;28;20495;-78
2022/01/31 11:31:04;;;;;;;11.97;6.40;;;;;;;6.49;45.84;94377.34;5037050;28;20516;-78
2022/01/31 11:33:32;;;;;;;7.03;4.00;;;;;;;6.58;44.77;94369.75;5020653;28;20435;-78
2022/01/31 11:36:01;;;;;;;7.27;4.37;;;;;;;6.58;44.46;94354.94;5055388;28;20526;-78
2022/01/31 11:38:29;;;;;;;18.63;5.00;;;;;;;6.72;45.41;94346.06;5037491;28;20445;-78
2022/01/31 11:41:02;;;;;;;14.33;4.43;;;;;;;6.70;44.90;94338.38;5020849;28;20456;-79
2022/01/31 11:43:30;;;;;;;8.50;3.30;;;;;;;6.67;43.60;94338.59;5055484;28;20446;-79
2022/01/31 11:46:00;;;;;;;8.13;3.13;;;;;;;6.62;42.96;94330.28;5020782;28;20451;-81
2022/01/31 11:48:29;;;;;;;4.73;3.20;;;;;;;6.62;43.85;94330.28;5020522;28;20840;-79
2022/01/31 11:51:00;;;;;;;4.03;2.10;;;;;;;6.51;43.72;94330.31;5055979;28;20864;-79
2022/01/31 11:53:29;;;;;;;6.93;2.87;;;;;;;6.50;42.94;94318.22;5055893;28;20427;-79
2022/01/31 11:56:02;;;;;;;4.80;3.07;;;;;;;6.52;44.21;94318.94;5055364;28;20808;-79
2022/01/31 11:58:32;;;;;;;11.93;3.33;;;;;;;6.56;43.50;94304.72;5054941;28;20457;-81